createdAt,value
2015-05-20T16:40:21.639Z,683
2015-05-20T16:40:39.959Z,683
2015-05-20T16:40:58.287Z,682
2015-05-20T16:41:16.615Z,682
2015-05-20T16:41:34.963Z,683
2015-05-20T16:41:53.275Z,683
2015-05-20T16:42:11.603Z,684
2015-05-20T16:42:29.884Z,681
2015-05-20T16:42:48.215Z,678
2015-05-20T16:43:06.527Z,675
2015-05-20T16:43:24.855Z,674
2015-05-20T16:43:43.201Z,671
2015-05-20T16:44:01.529Z,669
2015-05-20T16:44:19.842Z,668
2015-05-20T16:44:38.172Z,666
2015-05-20T16:44:56.469Z,664
2015-05-20T16:45:14.859Z,662
2015-05-20T16:45:33.172Z,661
2015-05-20T16:45:51.503Z,659
2015-05-20T16:46:09.784Z,657
2015-05-20T16:46:28.112Z,657
2015-05-20T16:46:46.442Z,657
2015-05-20T16:47:04.786Z,657
2015-05-20T16:47:23.099Z,656
2015-05-20T16:47:41.413Z,655
2015-05-20T16:47:59.710Z,654
2015-05-20T16:48:18.022Z,653
2015-05-20T16:48:36.319Z,653
2015-05-20T16:48:54.650Z,652
2015-05-20T16:49:12.979Z,651
2015-05-20T16:49:31.307Z,650
2015-05-20T16:49:49.590Z,650
2015-05-20T16:50:07.887Z,649
2015-05-20T16:50:26.199Z,650
2015-05-20T16:50:44.499Z,650
2015-05-20T16:51:02.796Z,651
2015-05-20T16:51:21.124Z,652
2015-05-20T16:51:39.437Z,653
2015-05-20T16:51:57.782Z,654
2015-05-20T16:52:16.111Z,655
2015-05-20T16:52:34.407Z,657
2015-05-20T16:52:52.722Z,657
2015-05-20T16:53:11.034Z,658
2015-05-20T16:53:29.331Z,658
2015-05-20T16:53:47.630Z,658
2015-05-20T16:54:05.943Z,658
2015-05-20T16:54:24.271Z,658
2015-05-20T16:54:42.568Z,658
2015-05-20T16:55:00.883Z,657
2015-05-20T16:55:19.180Z,657
2015-05-20T16:55:37.493Z,657
2015-05-20T16:55:55.823Z,657
2015-05-20T16:56:14.135Z,656
2015-05-20T16:56:32.432Z,656
2015-05-20T16:56:50.747Z,655
2015-05-20T16:57:09.059Z,655
2015-05-20T16:57:27.356Z,654
2015-05-20T16:57:45.668Z,653
2015-05-20T16:58:04.078Z,652
2015-05-20T16:58:22.406Z,651
2015-05-20T16:58:40.750Z,650
2015-05-20T16:58:59.048Z,649
2015-05-20T16:59:17.361Z,648
2015-05-20T16:59:35.673Z,647
2015-05-20T16:59:54.005Z,646
2015-05-20T17:00:12.286Z,645
2015-05-20T17:00:30.598Z,643
2015-05-20T17:00:48.926Z,642
2015-05-20T17:01:07.241Z,640
2015-05-20T17:01:25.553Z,639
2015-05-20T17:01:43.882Z,637
2015-05-20T17:02:02.180Z,634
2015-05-20T17:02:20.493Z,631
2015-05-20T17:02:38.165Z,628
2015-05-20T17:02:56.511Z,625
2015-05-20T17:03:14.807Z,622
2015-05-20T17:03:32.464Z,619
2015-05-20T17:03:50.776Z,617
2015-05-20T17:04:09.076Z,615
2015-05-20T17:04:27.389Z,613
2015-05-20T17:04:45.701Z,611
2015-05-20T17:05:04.016Z,609
2015-05-20T17:05:22.203Z,608
2015-05-20T17:05:40.531Z,606
2015-05-20T17:05:58.859Z,604
2015-05-20T17:06:17.190Z,602
2015-05-20T17:06:35.519Z,600
2015-05-20T17:06:53.878Z,599
2015-05-20T17:07:12.208Z,597
2015-05-20T17:07:30.536Z,595
2015-05-20T17:07:48.864Z,594
2015-05-20T17:08:07.021Z,592
2015-05-20T17:08:25.336Z,591
2015-05-20T17:08:43.664Z,589
2015-05-20T17:09:01.961Z,587
2015-05-20T17:09:20.276Z,585
2015-05-20T17:09:38.604Z,583
2015-05-20T17:09:56.916Z,581
2015-05-20T17:10:15.260Z,579
2015-05-20T17:10:33.590Z,577
2015-05-20T17:10:51.903Z,576
2015-05-20T17:11:10.309Z,575
2015-05-20T17:11:28.640Z,574
2015-05-20T17:11:46.952Z,573
2015-05-20T17:12:05.281Z,573
2015-05-20T17:12:23.595Z,572
2015-05-20T17:12:41.939Z,572
2015-05-20T17:13:00.267Z,573
2015-05-20T17:13:18.611Z,573
2015-05-20T17:13:36.926Z,573
2015-05-20T17:13:55.239Z,574
2015-05-20T17:14:13.645Z,574
2015-05-20T17:14:31.959Z,575
2015-05-20T17:14:50.272Z,575
2015-05-20T17:15:08.600Z,576
2015-05-20T17:15:26.900Z,577
2015-05-20T17:15:45.197Z,579
2015-05-20T17:16:03.509Z,580
2015-05-20T17:16:21.853Z,581
2015-05-20T17:16:40.213Z,581
2015-05-20T17:16:58.542Z,582
2015-05-20T17:17:16.885Z,583
2015-05-20T17:17:35.216Z,584
2015-05-20T17:17:53.498Z,585
2015-05-20T17:18:11.810Z,586
2015-05-20T17:18:30.125Z,587
2015-05-20T17:18:48.437Z,588
2015-05-20T17:19:06.750Z,589
2015-05-20T17:19:25.047Z,590
2015-05-20T17:19:43.377Z,590
2015-05-20T17:20:01.705Z,591
2015-05-20T17:20:20.017Z,591
2015-05-20T17:20:38.317Z,591
2015-05-20T17:20:56.630Z,592
2015-05-20T17:21:14.958Z,592
2015-05-20T17:21:33.336Z,592
2015-05-20T17:21:51.617Z,592
2015-05-20T17:22:09.914Z,593
2015-05-20T17:22:28.242Z,593
2015-05-20T17:22:46.557Z,594
2015-05-20T17:23:04.853Z,595
2015-05-20T17:23:23.182Z,595
2015-05-20T17:23:41.512Z,596
2015-05-20T17:23:59.199Z,597
2015-05-20T17:24:17.590Z,597
2015-05-20T17:24:35.968Z,598
2015-05-20T17:24:54.343Z,598
2015-05-20T17:25:12.655Z,598
2015-05-20T17:25:30.983Z,599
2015-05-20T17:25:49.391Z,600
2015-05-20T17:26:07.734Z,601
2015-05-20T17:26:26.063Z,603
2015-05-20T17:26:44.378Z,603
2015-05-20T17:27:02.753Z,603
2015-05-20T17:27:21.050Z,604
2015-05-20T17:27:39.380Z,605
2015-05-20T17:27:57.724Z,605
2015-05-20T17:28:16.021Z,606
2015-05-20T17:28:34.349Z,606
2015-05-20T17:28:52.680Z,607
2015-05-20T17:29:11.039Z,608
2015-05-20T17:29:29.367Z,608
2015-05-20T17:29:47.682Z,608
2015-05-20T17:30:06.010Z,609
2015-05-20T17:30:24.338Z,610
2015-05-20T17:30:42.653Z,610
2015-05-20T17:31:00.340Z,610
2015-05-20T17:31:18.684Z,610
2015-05-20T17:31:37.028Z,609
2015-05-20T17:31:55.343Z,608
2015-05-20T17:32:13.671Z,607
2015-05-20T17:32:31.984Z,606
2015-05-20T17:32:50.314Z,605
2015-05-20T17:33:08.626Z,603
2015-05-20T17:33:26.939Z,602
2015-05-20T17:33:45.251Z,601
2015-05-20T17:34:03.598Z,600
2015-05-20T17:34:21.270Z,598
2015-05-20T17:34:39.614Z,597
2015-05-20T17:34:57.913Z,596
2015-05-20T17:35:16.256Z,596
2015-05-20T17:35:34.569Z,595
2015-05-20T17:35:52.881Z,594
2015-05-20T17:36:10.541Z,593
2015-05-20T17:36:28.869Z,592
2015-05-20T17:36:47.166Z,590
2015-05-20T17:37:05.746Z,589
2015-05-20T17:37:24.230Z,588
2015-05-20T17:37:42.527Z,587
2015-05-20T17:38:00.840Z,586
2015-05-20T17:38:19.155Z,584
2015-05-20T17:38:37.499Z,583
2015-05-20T17:38:55.811Z,581
2015-05-20T17:39:14.157Z,580
2015-05-20T17:39:32.501Z,578
2015-05-20T17:39:50.813Z,577
2015-05-20T17:40:09.141Z,576
2015-05-20T17:40:27.472Z,575
2015-05-20T17:40:45.784Z,574
2015-05-20T17:41:04.128Z,572
2015-05-20T17:41:22.443Z,571
2015-05-20T17:41:40.756Z,570
2015-05-20T17:41:59.100Z,569
2015-05-20T17:42:17.398Z,568
2015-05-20T17:42:35.773Z,566
2015-05-20T17:42:54.102Z,565
2015-05-20T17:43:12.430Z,563
2015-05-20T17:43:30.761Z,561
2015-05-20T17:43:49.089Z,560
2015-05-20T17:44:07.401Z,558
2015-05-20T17:44:25.716Z,557
2015-05-20T17:44:44.138Z,556
2015-05-20T17:45:02.482Z,556
2015-05-20T17:45:20.780Z,555
2015-05-20T17:45:39.109Z,555
2015-05-20T17:45:57.405Z,555
2015-05-20T17:46:15.718Z,555
2015-05-20T17:46:34.033Z,556
2015-05-20T17:46:52.362Z,556
2015-05-20T17:47:10.679Z,557
2015-05-20T17:47:29.056Z,558
2015-05-20T17:47:47.368Z,559
2015-05-20T17:48:05.712Z,561
2015-05-20T17:48:24.011Z,563
2015-05-20T17:48:42.355Z,565
2015-05-20T17:49:00.683Z,567
2015-05-20T17:49:18.980Z,569
2015-05-20T17:49:37.279Z,572
2015-05-20T17:49:55.576Z,574
2015-05-20T17:50:13.935Z,576
2015-05-20T17:50:32.266Z,578
2015-05-20T17:50:50.563Z,579
2015-05-20T17:51:08.875Z,579
2015-05-20T17:51:27.191Z,579
2015-05-20T17:51:45.550Z,578
2015-05-20T17:52:03.894Z,576
2015-05-20T17:52:22.191Z,575
2015-05-20T17:52:40.537Z,573
2015-05-20T17:52:58.865Z,571
2015-05-20T17:53:17.193Z,570
2015-05-20T17:53:35.679Z,569
2015-05-20T17:53:54.007Z,568
2015-05-20T17:54:12.320Z,567
2015-05-20T17:54:30.666Z,566
2015-05-20T17:54:48.994Z,565
2015-05-20T17:55:07.353Z,564
2015-05-20T17:55:25.650Z,563
2015-05-20T17:55:43.965Z,562
2015-05-20T17:56:02.308Z,561
2015-05-20T17:56:20.605Z,559
2015-05-20T17:56:38.920Z,557
2015-05-20T17:56:57.248Z,555
2015-05-20T17:57:15.560Z,554
2015-05-20T17:57:33.205Z,552
2015-05-20T17:57:51.517Z,550
2015-05-20T17:58:09.830Z,549
2015-05-20T17:58:28.189Z,547
2015-05-20T17:58:46.504Z,545
2015-05-20T17:59:04.832Z,543
2015-05-20T17:59:23.144Z,542
2015-05-20T17:59:41.443Z,541
2015-05-20T17:59:59.756Z,541
2015-05-20T18:00:18.084Z,540
2015-05-20T18:00:36.384Z,539
2015-05-20T18:00:54.696Z,538
2015-05-20T18:01:13.024Z,537
2015-05-20T18:01:31.321Z,535
2015-05-20T18:01:49.651Z,533
2015-05-20T18:02:07.964Z,531
2015-05-20T18:02:26.308Z,529
2015-05-20T18:02:44.622Z,526
2015-05-20T18:03:02.919Z,524
2015-05-20T18:03:21.247Z,522
2015-05-20T18:03:39.577Z,519
2015-05-20T18:03:57.921Z,517
2015-05-20T18:04:16.234Z,515
2015-05-20T18:04:34.577Z,513
2015-05-20T18:04:52.893Z,512
2015-05-20T18:05:11.252Z,510
2015-05-20T18:05:29.580Z,510
2015-05-20T18:05:47.896Z,509
2015-05-20T18:06:06.224Z,508
2015-05-20T18:06:24.521Z,507
2015-05-20T18:06:42.834Z,507
2015-05-20T18:07:01.131Z,507
2015-05-20T18:07:19.475Z,506
2015-05-20T18:07:37.787Z,506
2015-05-20T18:07:56.149Z,507
2015-05-20T18:08:14.493Z,508
2015-05-20T18:08:32.883Z,508
2015-05-20T18:08:51.277Z,509
2015-05-20T18:09:09.621Z,510
2015-05-20T18:09:27.964Z,510
2015-05-20T18:09:46.373Z,511
2015-05-20T18:10:04.716Z,511
2015-05-20T18:10:23.060Z,511
2015-05-20T18:10:41.419Z,511
2015-05-20T18:10:59.813Z,511
2015-05-20T18:11:18.219Z,512
2015-05-20T18:11:36.579Z,511
2015-05-20T18:11:54.971Z,510
2015-05-20T18:12:13.346Z,508
2015-05-20T18:12:31.721Z,506
2015-05-20T18:12:50.096Z,503
2015-05-20T18:13:08.443Z,501
2015-05-20T18:13:26.834Z,500
2015-05-20T18:13:45.193Z,498
2015-05-20T18:14:03.554Z,498
2015-05-20T18:14:21.883Z,499
2015-05-20T18:14:40.226Z,501
2015-05-20T18:14:58.601Z,504
2015-05-20T18:15:16.917Z,507
2015-05-20T18:15:35.245Z,511
2015-05-20T18:15:53.604Z,515
2015-05-20T18:16:11.935Z,519
2015-05-20T18:16:30.326Z,523
2015-05-20T18:16:48.670Z,526
2015-05-20T18:17:07.029Z,528
2015-05-20T18:17:25.375Z,530
2015-05-20T18:17:43.719Z,530
2015-05-20T18:18:02.047Z,529
2015-05-20T18:18:20.361Z,528
2015-05-20T18:18:38.705Z,526
2015-05-20T18:18:57.064Z,523
2015-05-20T18:19:15.393Z,520
2015-05-20T18:19:33.692Z,515
2015-05-20T18:19:52.052Z,511
2015-05-20T18:20:10.380Z,505
2015-05-20T18:20:28.741Z,499
2015-05-20T18:20:47.069Z,493
2015-05-20T18:21:05.398Z,487
2015-05-20T18:21:23.710Z,481
2015-05-20T18:21:42.041Z,475
2015-05-20T18:22:00.369Z,469
2015-05-20T18:22:18.682Z,463
2015-05-20T18:22:37.012Z,457
2015-05-20T18:22:55.371Z,452
2015-05-20T18:23:13.715Z,448
2015-05-20T18:23:32.074Z,444
2015-05-20T18:23:50.406Z,441
2015-05-20T18:24:08.765Z,438
2015-05-20T18:24:27.109Z,435
2015-05-20T18:24:45.439Z,433
2015-05-20T18:25:03.783Z,431
2015-05-20T18:25:22.111Z,429
2015-05-20T18:25:40.454Z,427
2015-05-20T18:25:58.831Z,427
2015-05-20T18:26:17.175Z,427
2015-05-20T18:26:35.503Z,427
2015-05-20T18:26:53.881Z,428
2015-05-20T18:27:12.225Z,428
2015-05-20T18:27:30.631Z,430
2015-05-20T18:27:48.961Z,432
2015-05-20T18:28:07.274Z,435
2015-05-20T18:28:25.618Z,437
2015-05-20T18:28:43.946Z,440
2015-05-20T18:29:02.308Z,442
2015-05-20T18:29:20.652Z,445
2015-05-20T18:29:39.027Z,448
2015-05-20T18:29:57.357Z,450
2015-05-20T18:30:15.670Z,453
2015-05-20T18:30:33.998Z,455
2015-05-20T18:30:52.343Z,457
2015-05-20T18:31:10.703Z,459
2015-05-20T18:31:29.031Z,460
2015-05-20T18:31:47.390Z,461
2015-05-20T18:32:05.768Z,462
2015-05-20T18:32:24.081Z,463
2015-05-20T18:32:42.409Z,463
2015-05-20T18:33:00.755Z,464
2015-05-20T18:33:19.067Z,463
2015-05-20T18:33:37.427Z,463
2015-05-20T18:33:55.741Z,462
2015-05-20T18:34:14.069Z,460
2015-05-20T18:34:32.413Z,458
2015-05-20T18:34:50.772Z,456
2015-05-20T18:35:09.087Z,454
2015-05-20T18:35:27.415Z,451
2015-05-20T18:35:45.743Z,447
2015-05-20T18:36:04.058Z,443
2015-05-20T18:36:22.386Z,440
2015-05-20T18:36:40.729Z,436
2015-05-20T18:36:59.061Z,432
2015-05-20T18:37:17.404Z,428
2015-05-20T18:37:35.717Z,424
2015-05-20T18:37:54.061Z,419
2015-05-20T18:38:12.360Z,415
2015-05-20T18:38:30.689Z,411
2015-05-20T18:38:49.001Z,407
2015-05-20T18:39:07.330Z,402
2015-05-20T18:39:25.658Z,398
2015-05-20T18:39:43.986Z,394
2015-05-20T18:40:02.302Z,390
2015-05-20T18:40:20.614Z,386
2015-05-20T18:40:38.943Z,383
2015-05-20T18:40:57.255Z,380
2015-05-20T18:41:15.602Z,378
2015-05-20T18:41:33.899Z,375
2015-05-20T18:41:52.211Z,374
2015-05-20T18:42:10.573Z,373
2015-05-20T18:42:28.869Z,371
2015-05-20T18:42:47.182Z,370
2015-05-20T18:43:05.512Z,369
2015-05-20T18:43:23.871Z,367
2015-05-20T18:43:42.184Z,366
2015-05-20T18:44:00.496Z,364
2015-05-20T18:44:18.842Z,361
2015-05-20T18:44:37.155Z,358
2015-05-20T18:44:55.483Z,355
2015-05-20T18:45:13.830Z,351
2015-05-20T18:45:32.158Z,347
2015-05-20T18:45:50.486Z,342
2015-05-20T18:46:08.814Z,337
2015-05-20T18:46:27.145Z,332
2015-05-20T18:46:45.489Z,327
2015-05-20T18:47:03.817Z,322
2015-05-20T18:47:22.131Z,317
2015-05-20T18:47:40.460Z,312
2015-05-20T18:47:58.772Z,308
2015-05-20T18:48:17.100Z,305
2015-05-20T18:48:35.431Z,302
2015-05-20T18:48:53.759Z,299
2015-05-20T18:49:12.103Z,297
2015-05-20T18:49:30.465Z,295
2015-05-20T18:49:48.777Z,293
2015-05-20T18:50:07.105Z,291
2015-05-20T18:50:25.449Z,290
2015-05-20T18:50:43.779Z,288
2015-05-20T18:51:02.092Z,287
2015-05-20T18:51:20.404Z,286
2015-05-20T18:51:38.720Z,284
2015-05-20T18:51:57.048Z,283
2015-05-20T18:52:15.391Z,281
2015-05-20T18:52:33.720Z,279
2015-05-20T18:52:52.035Z,277
2015-05-20T18:53:10.363Z,275
2015-05-20T18:53:28.723Z,272
2015-05-20T18:53:46.412Z,270
2015-05-20T18:54:04.771Z,268
2015-05-20T18:54:23.084Z,265
2015-05-20T18:54:41.443Z,263
2015-05-20T18:54:59.790Z,260
2015-05-20T18:55:18.118Z,257
2015-05-20T18:55:36.509Z,254
2015-05-20T18:55:54.854Z,251
2015-05-20T18:56:13.166Z,248
2015-05-20T18:56:31.479Z,245
2015-05-20T18:56:49.793Z,242
2015-05-20T18:57:08.106Z,239
2015-05-20T18:57:26.481Z,236
2015-05-20T18:57:44.809Z,234
2015-05-20T18:58:03.155Z,231
2015-05-20T18:58:21.484Z,228
2015-05-20T18:58:39.796Z,226
2015-05-20T18:58:58.126Z,224
2015-05-20T18:59:16.423Z,221
2015-05-20T18:59:34.767Z,219
2015-05-20T18:59:53.114Z,216
2015-05-20T19:00:11.457Z,214
2015-05-20T19:00:29.801Z,211
2015-05-20T19:00:48.129Z,208
2015-05-20T19:01:06.445Z,205
2015-05-20T19:01:24.773Z,201
2015-05-20T19:01:43.117Z,197
2015-05-20T19:02:01.415Z,193
2015-05-20T19:02:19.712Z,189
2015-05-20T19:02:38.056Z,185
2015-05-20T19:02:56.386Z,180
2015-05-20T19:03:14.699Z,176
2015-05-20T19:03:33.027Z,171
2015-05-20T19:03:51.339Z,167
2015-05-20T19:04:09.670Z,163
2015-05-20T19:04:28.014Z,160
2015-05-20T19:04:46.327Z,156
2015-05-20T19:05:04.671Z,153
2015-05-20T19:05:22.984Z,150
2015-05-20T19:05:41.312Z,148
2015-05-20T19:05:59.643Z,145
2015-05-20T19:06:17.971Z,143
2015-05-20T19:06:36.299Z,140
2015-05-20T19:06:54.628Z,138
2015-05-20T19:07:12.958Z,136
2015-05-20T19:07:31.317Z,134
2015-05-20T19:07:49.614Z,132
2015-05-20T19:08:07.945Z,130
2015-05-20T19:08:26.258Z,128
2015-05-20T19:08:44.601Z,125
2015-05-20T19:09:02.931Z,123
2015-05-20T19:09:21.291Z,121
2015-05-20T19:09:39.650Z,119
2015-05-20T19:09:57.994Z,117
2015-05-20T19:10:16.309Z,115
2015-05-20T19:10:34.653Z,113
2015-05-20T19:10:52.997Z,110
2015-05-20T19:11:11.327Z,108
2015-05-20T19:11:29.671Z,106
2015-05-20T19:11:48.015Z,104
2015-05-20T19:12:06.345Z,102
2015-05-20T19:12:24.673Z,100
2015-05-20T19:12:43.017Z,98
2015-05-20T19:13:01.376Z,96
2015-05-20T19:13:19.723Z,94
2015-05-20T19:13:38.051Z,92
2015-05-20T19:13:56.379Z,90
2015-05-20T19:14:14.739Z,88
2015-05-20T19:14:33.114Z,87
2015-05-20T19:14:51.458Z,85
2015-05-20T19:15:09.836Z,83
2015-05-20T19:15:28.180Z,82
2015-05-20T19:15:46.524Z,80
2015-05-20T19:16:04.852Z,78
2015-05-20T19:16:23.166Z,77
2015-05-20T19:16:41.510Z,75
2015-05-20T19:16:59.807Z,73
2015-05-20T19:17:18.340Z,72
2015-05-20T19:17:36.668Z,71
2015-05-20T19:17:54.981Z,69
2015-05-20T19:18:13.312Z,68
2015-05-20T19:18:31.624Z,66
2015-05-20T19:18:49.952Z,65
2015-05-20T19:19:08.265Z,64
2015-05-20T19:19:26.534Z,62
2015-05-20T19:19:44.846Z,61
2015-05-20T19:20:03.190Z,59
2015-05-20T19:20:21.489Z,58
2015-05-20T19:20:39.817Z,57
2015-05-20T19:20:58.129Z,56
2015-05-20T19:21:16.442Z,54
2015-05-20T19:21:34.756Z,53
2015-05-20T19:21:53.053Z,52
2015-05-20T19:22:11.413Z,51
2015-05-20T19:22:29.744Z,49
2015-05-20T19:22:48.087Z,48
2015-05-20T19:23:06.384Z,47
2015-05-20T19:23:24.712Z,46
2015-05-20T19:23:43.044Z,45
2015-05-20T19:24:01.372Z,43
2015-05-20T19:24:19.544Z,42
2015-05-20T19:24:37.857Z,41
2015-05-20T19:24:56.185Z,40
2015-05-20T19:25:14.482Z,39
2015-05-20T19:25:32.857Z,38
2015-05-20T19:25:51.173Z,37
2015-05-20T19:26:09.501Z,36
2015-05-20T19:26:27.829Z,35
2015-05-20T19:26:46.144Z,33
2015-05-20T19:27:04.488Z,32
2015-05-20T19:27:22.801Z,31
2015-05-20T19:27:41.113Z,30
2015-05-20T19:27:59.444Z,29
2015-05-20T19:28:17.772Z,29
2015-05-20T19:28:36.069Z,27
2015-05-20T19:28:54.415Z,27
2015-05-20T19:29:12.743Z,26
2015-05-20T19:29:31.071Z,25
2015-05-20T19:29:49.384Z,24
2015-05-20T19:30:07.714Z,24
2015-05-20T19:30:26.042Z,23
2015-05-20T19:30:44.339Z,22
2015-05-20T19:31:02.654Z,21
2015-05-20T19:31:20.982Z,20
2015-05-20T19:31:39.264Z,20
2015-05-20T19:31:57.578Z,19
2015-05-20T19:32:15.875Z,19
2015-05-20T19:32:33.547Z,18
2015-05-20T19:32:51.844Z,17
2015-05-20T19:33:10.158Z,17
2015-05-20T19:33:28.455Z,16
2015-05-20T19:33:46.768Z,16
2015-05-20T19:34:05.067Z,15
2015-05-20T19:34:23.238Z,15
2015-05-20T19:34:41.535Z,15
2015-05-20T19:34:59.851Z,14
2015-05-20T19:35:18.148Z,14
2015-05-20T19:35:36.460Z,13
2015-05-20T19:35:54.757Z,13
2015-05-20T19:36:13.087Z,13
2015-05-20T19:36:31.415Z,13
2015-05-20T19:36:49.697Z,12
2015-05-20T19:37:08.012Z,12
2015-05-20T19:37:26.340Z,11
2015-05-20T19:37:44.668Z,11
2015-05-20T19:38:02.998Z,11
2015-05-20T19:38:21.358Z,11
2015-05-20T19:38:39.623Z,10
2015-05-20T19:38:57.952Z,10
2015-05-20T19:39:16.266Z,9
2015-05-20T19:39:34.563Z,9
2015-05-20T19:39:52.985Z,9
2015-05-20T19:40:11.316Z,9
2015-05-20T19:40:29.628Z,8
2015-05-20T19:40:47.925Z,8
2015-05-20T19:41:06.255Z,8
2015-05-20T19:41:24.584Z,8
2015-05-20T19:41:42.880Z,8
2015-05-20T19:42:01.240Z,7
2015-05-20T19:42:19.524Z,7
2015-05-20T19:42:37.837Z,7
2015-05-20T19:42:56.149Z,7
2015-05-20T19:43:14.463Z,6
2015-05-20T19:43:32.791Z,6
2015-05-20T19:43:51.103Z,6
2015-05-20T19:44:09.434Z,6
2015-05-20T19:44:27.778Z,6
2015-05-20T19:44:46.153Z,5
2015-05-20T19:45:04.481Z,5
2015-05-20T19:45:22.828Z,5
2015-05-20T19:45:41.172Z,5
2015-05-20T19:45:59.515Z,5
2015-05-20T19:46:17.814Z,5
2015-05-20T19:46:36.142Z,4
2015-05-20T19:46:54.455Z,5
2015-05-20T19:47:12.783Z,5
2015-05-20T19:47:31.113Z,5
2015-05-20T19:47:49.426Z,5
2015-05-20T19:48:07.754Z,4
2015-05-20T19:48:26.101Z,4
2015-05-20T19:48:44.444Z,4
2015-05-20T19:49:02.788Z,4
2015-05-20T19:49:21.132Z,4
2015-05-20T19:49:39.463Z,4
2015-05-20T19:49:57.775Z,4
2015-05-20T19:50:16.088Z,4
2015-05-20T19:50:34.401Z,4
2015-05-20T19:50:52.761Z,4
2015-05-20T19:51:11.058Z,3
2015-05-20T19:51:29.370Z,3
2015-05-20T19:51:47.717Z,3
2015-05-20T19:52:06.029Z,3
2015-05-20T19:52:24.342Z,3
2015-05-20T19:52:42.656Z,3
2015-05-20T19:53:00.969Z,3
2015-05-20T19:53:19.344Z,3
2015-05-20T19:53:37.658Z,3
2015-05-20T19:53:55.987Z,3
2015-05-20T19:54:14.299Z,3
2015-05-20T19:54:32.658Z,3
2015-05-20T19:54:50.990Z,3
2015-05-20T19:55:09.302Z,3
2015-05-20T19:55:27.615Z,3
2015-05-20T19:55:45.930Z,3
2015-05-20T19:56:04.274Z,3
2015-05-20T19:56:22.571Z,3
2015-05-20T19:56:40.916Z,2
2015-05-20T19:56:59.213Z,3
2015-05-20T19:57:17.557Z,2
2015-05-20T19:57:35.948Z,8
2015-05-20T19:57:54.247Z,11
